Date,TemperatureHighF,TemperatureAvgF,TemperatureLowF,DewpointHighF,DewpointAvgF,DewpointLowF,HumidityHigh,HumidityAvg,HumidityLow,PressureMaxIn,PressureMinIn,WindSpeedMaxMPH,WindSpeedAvgMPH,GustSpeedMaxMPH,PrecipitationSumIn
2014-1-1,37.9,30.6,24.6,28.2,23.6,19.6,83,75,63,30.37,30.11,10,1,10,0.00
2014-1-2,28.0,23.0,13.6,23.7,19.2,8.8,92,85,79,30.12,29.80,19,3,19,0.00
2014-1-3,17.1,10.9,5.3,9.3,4.0,0.7,85,74,56,30.51,30.13,16,2,16,0.00
2014-1-4,36.8,22.8,9.6,16.3,10.7,4.3,81,62,39,30.40,30.14,16,2,16,0.00
2014-1-5,50.0,37.0,21.3,46.2,29.3,15.9,88,74,59,30.16,29.37,20,2,20,0.18
2014-1-6,49.9,10.2,-8.0,46.5,2.9,-18.6,88,72,57,30.33,29.39,34,11,34,0.01
2014-1-7,8.5,0.1,-8.2,0.0,-7.8,-18.3,77,69,60,30.52,30.33,29,8,29,0.00
2014-1-8,24.7,17.5,4.7,19.6,9.0,-0.5,85,69,58,30.57,30.47,12,2,12,0.00
2014-1-9,35.6,28.5,21.0,29.0,24.1,18.2,92,84,66,30.63,30.38,13,1,13,0.00
2014-1-10,50.5,39.5,31.0,46.8,37.5,28.8,96,92,87,30.38,29.84,14,2,14,0.03
2014-1-11,56.2,48.5,36.3,51.2,44.3,29.8,96,85,72,29.84,29.40,26,7,28,0.79
2014-1-12,39.1,35.3,29.8,32.3,30.0,27.3,92,81,71,30.06,29.76,23,4,23,0.00
2014-1-13,49.2,43.8,35.9,45.9,36.6,29.9,94,76,54,29.99,29.72,20,4,20,0.19
2014-1-14,47.5,41.4,32.7,45.8,35.1,25.9,96,79,48,29.85,29.72,17,2,20,0.12
2014-1-15,42.4,29.8,23.8,35.4,20.8,15.0,88,69,59,30.09,29.82,22,5,25,0.00
2014-1-16,32.3,27.7,22.6,26.4,18.4,14.9,86,68,52,30.07,29.84,20,3,20,0.00
2014-1-17,38.6,30.8,16.4,33.7,25.9,7.2,91,82,67,30.06,29.79,22,5,22,0.00
2014-1-18,20.4,16.5,10.8,16.3,9.8,3.6,88,75,65,30.10,29.89,18,3,19,0.00
2014-1-19,34.0,27.1,19.6,24.6,20.9,16.3,91,78,62,29.92,29.75,25,4,25,0.00
2014-1-20,37.5,33.5,26.1,31.0,26.7,21.9,86,76,66,29.98,29.69,13,4,26,0.00
2014-1-21,26.2,16.6,3.7,22.0,8.9,-3.2,90,72,55,30.19,29.90,21,5,22,0.00
2014-1-22,12.9,7.9,-2.8,6.8,1.5,-5.7,89,75,62,30.22,30.10,10,2,12,0.00
2014-1-23,13.0,9.6,5.0,9.3,4.0,-0.4,86,78,67,30.59,30.09,20,5,20,0.00
2014-1-24,19.4,8.4,-0.4,4.4,0.3,-4.6,82,70,51,30.62,29.89,24,5,24,0.00
2014-1-25,29.0,21.3,13.3,24.8,14.9,3.9,92,77,49,29.89,29.45,24,6,24,0.00
2014-1-26,35.4,17.7,5.1,26.1,10.6,-0.8,84,73,63,29.93,29.58,15,2,15,0.00
2014-1-27,41.4,15.4,-2.5,32.1,5.9,-9.5,78,65,54,30.43,29.54,32,7,32,0.02
2014-1-28,7.5,-3.3,-15.0,-4.4,-10.6,-19.4,84,71,50,30.57,30.40,11,1,11,0.00
2014-1-29,18.4,1.8,-16.4,3.2,-6.8,-20.7,88,68,48,30.43,30.36,22,3,22,0.00
2014-1-30,34.7,24.9,-1.4,11.2,4.9,-6.3,82,44,34,30.42,30.01,17,3,17,0.00
2014-1-31,37.4,33.9,30.4,30.9,21.4,10.6,92,63,37,30.21,30.04,13,2,14,0.00
2014-2-1,53.8,40.9,30.6,32.9,29.7,24.3,92,67,39,30.18,29.89,10,2,16,0.00
2014-2-2,39.8,33.9,27.9,37.3,30.7,24.3,96,88,75,30.24,29.93,11,1,11,0.24
2014-2-3,32.0,25.8,16.8,24.7,19.0,14.0,89,76,56,30.42,30.16,13,2,13,0.00
2014-2-4,31.8,24.3,15.2,25.1,17.9,12.7,94,78,53,30.48,30.03,15,3,15,0.00
2014-2-5,31.2,27.4,20.9,30.2,24.7,16.4,96,90,81,30.36,29.67,14,3,14,0.00
2014-2-6,24.4,19.0,10.3,18.1,14.1,7.7,91,81,68,30.48,30.35,16,3,16,0.00
2014-2-7,18.3,9.3,0.3,9.4,0.2,-5.1,84,67,48,30.51,30.41,16,3,16,0.00
2014-2-8,22.8,13.0,1.5,15.7,6.5,-2.5,85,75,56,30.45,30.25,5,1,7,0.00
2014-2-9,28.0,22.3,16.7,24.9,17.6,11.1,93,82,70,30.25,30.04,12,2,16,0.00
2014-2-10,23.1,13.2,4.3,13.2,7.7,1.4,90,79,59,30.45,30.24,9,1,9,0.01
2014-2-11,22.4,6.4,-6.2,10.7,0.8,-9.8,88,78,58,30.56,30.43,7,1,7,0.00
2014-2-12,33.1,12.0,-8.4,14.0,2.8,-12.2,87,69,37,30.55,30.12,9,1,9,0.00
2014-2-13,38.5,25.4,17.0,27.6,17.4,11.2,86,72,54,30.13,29.63,11,1,11,0.05
2014-2-14,34.0,28.9,20.0,25.1,21.2,15.9,92,73,58,29.78,29.56,16,4,24,0.00
2014-2-15,27.8,22.2,9.0,23.0,15.5,5.2,91,76,53,30.16,29.77,15,3,15,0.00
2014-2-16,27.3,18.0,6.7,22.7,13.8,3.3,90,84,73,30.41,30.04,12,2,12,0.00
2014-2-17,38.4,18.7,-3.7,34.2,10.8,-7.3,90,73,47,30.47,29.76,27,4,27,0.02
2014-2-18,47.2,38.5,31.4,33.1,29.5,25.1,89,71,46,30.13,29.84,37,6,37,0.00
2014-2-19,48.7,42.0,27.1,41.2,33.0,25.0,94,72,46,30.16,29.71,21,4,21,0.01
2014-2-20,58.1,40.3,22.2,48.0,34.8,20.4,95,82,63,30.16,29.64,14,2,14,0.31
2014-2-21,54.6,43.6,37.0,52.0,32.7,19.0,96,67,42,29.99,29.57,24,7,33,0.22
2014-2-22,54.3,43.5,33.9,30.5,24.8,17.0,81,49,34,30.08,29.94,20,5,26,0.00
2014-2-23,40.7,35.4,27.1,34.0,27.4,15.1,91,74,49,30.14,30.04,15,2,15,0.00
2014-2-24,33.4,26.7,22.1,16.2,13.3,8.0,74,58,36,30.23,30.13,21,5,21,0.00
2014-2-25,27.6,24.7,20.5,18.4,16.0,11.9,87,69,60,30.21,30.05,19,4,19,0.00
2014-2-26,24.7,19.5,15.4,16.3,8.0,3.1,81,61,45,30.18,29.85,18,4,19,0.00
2014-2-27,22.7,16.8,7.1,13.6,4.5,-3.1,72,58,43,30.25,29.73,28,6,30,0.00
2014-2-28,31.6,15.8,0.9,12.3,2.3,-2.8,86,59,27,30.41,30.21,11,1,12,0.00
2014-3-1,49.6,34.4,17.0,32.6,22.1,11.2,81,62,39,30.24,30.13,16,2,16,0.00
2014-3-2,36.8,24.0,15.3,27.3,17.8,5.1,91,77,63,30.28,30.14,13,4,13,0.00
2014-3-3,20.4,13.5,4.6,5.5,1.1,-1.5,79,58,46,30.48,30.28,21,4,21,0.00
2014-3-4,36.0,19.3,3.7,18.5,6.5,-1.0,82,60,32,30.47,30.24,4,1,7,0.03
2014-3-5,33.9,23.0,14.3,17.3,13.3,9.0,90,68,39,30.47,30.26,16,3,16,0.00
2014-3-6,43.2,28.8,17.8,23.6,16.6,9.2,78,61,43,30.47,30.19,12,4,14,0.01
2014-3-7,58.1,38.2,22.9,37.9,28.2,18.8,90,69,46,30.19,29.97,9,1,9,0.00
2014-3-8,52.6,35.4,26.3,38.1,30.2,24.4,93,83,54,30.16,29.97,12,1,12,0.03
2014-3-9,44.1,33.7,21.1,28.0,23.3,18.5,91,67,42,30.30,30.02,11,2,16,0.01
2014-3-10,60.4,47.6,38.1,40.9,34.0,27.6,67,60,48,30.02,29.68,25,5,25,0.00
2014-3-11,68.5,53.3,36.9,47.4,41.4,32.4,85,65,45,29.73,29.61,13,2,13,0.00
2014-3-12,51.3,36.5,14.9,40.1,31.0,7.8,95,81,61,29.95,29.21,19,4,26,0.63
2014-3-13,31.4,21.3,11.2,15.7,8.7,4.9,78,60,36,30.23,29.95,18,4,18,0.00
2014-3-14,62.5,46.6,30.6,34.5,25.2,14.6,57,44,32,30.16,29.73,34,6,34,0.00
2014-3-15,56.8,44.5,34.5,41.9,31.2,25.4,79,61,40,30.18,29.76,30,5,31,0.01
2014-3-16,34.5,27.5,25.4,25.5,14.2,6.8,76,58,42,30.30,30.09,18,7,21,0.00
2014-3-17,42.1,27.5,20.5,25.3,14.3,8.9,67,58,47,30.09,29.91,15,5,16,0.00
2014-3-18,57.5,45.1,23.1,37.1,32.2,20.6,90,62,45,30.08,29.95,13,3,15,0.00
2014-3-19,52.8,47.8,42.3,48.1,41.3,33.8,91,78,67,29.97,29.75,25,5,31,0.21
2014-3-20,44.1,38.4,31.7,38.0,30.9,25.5,88,74,58,30.08,29.91,21,7,25,0.00
2014-3-21,57.4,39.5,24.9,38.2,31.9,23.1,94,77,46,30.15,29.84,12,2,12,0.01
2014-3-22,57.2,48.0,38.1,38.1,33.6,29.5,75,58,37,30.16,29.75,22,4,22,0.00
2014-3-23,38.1,30.7,19.9,30.9,19.1,10.0,80,62,44,30.38,30.15,17,3,17,0.00
2014-3-24,36.9,25.0,12.8,16.2,12.1,9.3,89,61,33,30.40,30.16,16,2,16,0.00
2014-3-25,39.3,28.4,20.1,27.2,17.9,10.5,92,67,38,30.17,29.94,17,2,17,0.00
2014-3-26,33.3,23.4,17.9,16.8,12.3,7.7,81,63,41,30.40,30.14,15,2,17,0.00
2014-3-27,56.5,39.0,20.5,25.8,18.1,12.9,81,46,24,30.35,29.86,19,3,19,0.00
2014-3-28,62.0,53.9,40.9,51.4,40.5,24.9,82,62,30,30.15,29.80,25,6,25,0.02
2014-3-29,42.4,37.2,32.1,38.4,34.1,30.0,94,88,78,30.16,29.83,18,4,18,0.52
2014-3-30,47.2,36.8,30.1,31.2,27.1,21.4,94,70,40,30.19,29.95,20,3,20,0.09
2014-3-31,64.8,43.1,24.7,34.9,27.5,20.6,92,61,21,30.28,30.10,9,0,9,0.00
2014-4-1,75.3,56.2,35.7,42.8,32.2,21.5,84,48,17,30.10,29.85,37,6,38,0.00
2014-4-2,59.5,52.4,43.7,47.2,42.4,32.9,93,71,39,30.16,30.03,9,1,12,0.27
2014-4-3,52.2,49.2,45.1,50.2,42.0,31.0,96,78,53,30.10,29.76,10,3,14,0.57
2014-4-4,69.2,56.0,40.9,61.0,51.7,31.5,98,86,59,29.88,29.50,48,6,48,0.18
2014-4-5,49.6,40.5,32.2,32.1,29.4,26.7,87,65,46,30.23,29.88,28,5,28,0.00
2014-4-6,59.6,42.3,25.5,35.2,27.4,20.9,93,62,23,30.26,30.00,13,2,13,0.00
2014-4-7,56.7,47.8,40.6,53.8,42.4,33.1,96,82,56,30.00,29.37,16,2,16,0.52
2014-4-8,62.1,52.1,42.1,53.9,39.7,31.0,93,66,32,29.77,29.38,35,6,35,0.00
2014-4-9,59.4,48.4,39.3,39.7,34.6,28.8,91,62,34,30.06,29.77,16,2,17,0.00
2014-4-10,74.3,56.5,34.4,41.1,35.1,30.4,86,50,25,30.09,29.80,27,5,27,0.00
2014-4-11,68.5,57.9,45.2,54.6,50.6,40.9,96,78,37,30.10,29.89,19,2,19,0.21
2014-4-12,77.5,57.7,37.5,50.6,42.8,35.6,97,65,26,30.21,29.91,18,3,20,0.00
2014-4-13,82.5,69.9,51.7,57.3,50.9,46.8,84,54,33,29.97,29.75,27,5,27,0.00
2014-4-14,74.7,68.5,60.2,60.2,54.9,47.3,92,64,39,29.75,29.59,36,5,36,0.08
2014-4-15,60.1,36.4,28.3,58.0,31.4,19.3,94,82,60,30.26,29.60,19,4,19,0.35
2014-4-16,46.9,34.6,22.2,25.1,21.3,17.6,93,62,33,30.52,30.26,15,2,15,0.01
2014-4-17,67.9,50.7,33.8,37.9,28.6,20.9,73,45,26,30.45,30.30,19,3,19,0.00
2014-4-18,70.0,53.7,37.8,42.7,36.6,30.1,84,57,30,30.32,30.20,15,2,15,0.00
2014-4-19,63.8,53.2,43.4,42.0,36.0,21.1,87,57,21,30.38,30.23,19,4,19,0.00
2014-4-20,76.3,57.4,36.9,40.2,32.5,24.6,84,47,15,30.33,30.12,17,2,17,0.00
2014-4-21,79.4,61.5,39.3,49.0,39.7,33.8,84,50,22,30.12,29.79,11,2,17,0.00
2014-4-22,70.5,61.2,48.5,57.3,48.1,32.5,91,64,30,29.86,29.64,23,4,23,0.05
2014-4-23,53.2,45.3,36.1,36.9,34.0,31.5,84,65,51,30.15,29.86,14,3,15,0.00
2014-4-24,62.6,47.3,31.7,33.5,27.3,21.1,91,53,22,30.22,29.89,16,2,16,0.00
2014-4-25,59.5,52.3,42.4,55.7,41.5,25.4,96,70,34,29.91,29.64,20,3,20,0.38
2014-4-26,71.4,54.2,38.4,50.5,41.5,35.1,97,66,35,30.04,29.84,27,5,27,0.00
2014-4-27,66.5,51.9,38.5,38.2,35.8,34.1,85,58,33,30.15,30.00,13,4,15,0.00
2014-4-28,56.9,52.5,48.5,52.2,44.1,34.9,94,75,46,30.00,29.75,16,4,18,0.70
2014-4-29,73.8,61.7,53.4,62.8,56.1,51.4,96,83,58,29.90,29.65,23,5,23,1.24
2014-4-30,60.4,55.8,51.3,59.0,54.1,49.3,97,94,85,29.95,29.73,16,3,16,1.16
2014-5-1,59.6,54.7,49.5,56.9,44.2,36.5,95,70,46,29.88,29.80,25,4,25,0.10
2014-5-2,55.9,52.0,48.0,44.9,41.5,37.6,81,67,58,29.89,29.83,18,4,18,0.00
2014-5-3,65.9,56.2,48.2,47.9,43.2,37.9,83,64,39,29.88,29.74,27,4,27,0.03
2014-5-4,67.5,56.8,43.0,46.2,39.4,29.4,83,55,28,30.08,29.84,31,4,34,0.00
2014-5-5,54.5,46.5,35.1,44.0,38.4,33.2,94,74,55,30.10,29.92,11,1,11,0.05
2014-5-6,70.5,55.3,38.3,45.8,39.8,33.1,96,61,29,30.04,29.94,13,2,14,0.00
2014-5-7,85.0,71.6,53.1,56.7,51.3,41.0,80,51,32,30.06,29.91,11,2,14,0.00
2014-5-8,85.8,71.2,54.9,64.2,58.3,52.8,94,67,40,30.06,29.94,20,3,20,0.00
2014-5-9,64.1,60.3,57.7,59.1,56.3,54.0,89,87,81,30.01,29.96,4,0,4,0.00
2014-5-10,66.7,63.4,55.8,62.7,59.9,54.7,96,89,77,30.01,29.88,5,2,15,1.26
2014-5-11,77.2,66.4,53.3,63.2,60.1,52.5,98,81,55,30.14,30.01,14,1,14,0.12
2014-5-12,83.0,70.9,62.9,71.9,65.8,61.3,96,85,63,30.11,30.00,18,2,18,0.52
2014-5-13,88.2,76.1,63.3,70.2,66.2,62.4,98,74,46,30.05,29.96,17,3,17,0.01
2014-5-14,84.8,72.4,65.4,68.0,65.0,62.9,96,79,49,30.06,29.86,19,3,19,0.13
2014-5-15,69.1,61.9,51.6,64.8,58.1,44.8,97,87,75,30.00,29.77,20,4,20,0.31
2014-5-16,58.9,50.7,44.4,45.2,41.0,37.1,87,70,54,30.03,29.94,11,2,12,0.05
2014-5-17,54.9,48.7,44.0,45.7,42.8,40.0,92,81,60,30.25,30.03,19,2,19,0.11
2014-5-18,64.6,50.9,39.2,46.1,39.4,34.1,97,70,35,30.33,30.25,9,1,10,0.01
2014-5-19,72.3,55.3,37.0,46.5,39.8,34.3,96,63,29,30.35,30.18,11,1,11,0.00
2014-5-20,76.0,63.2,49.6,61.8,51.9,43.4,90,69,38,30.24,29.95,17,2,18,0.00
2014-5-21,75.7,67.2,59.5,67.4,62.9,57.1,95,86,72,29.97,29.81,17,2,19,0.16
2014-5-22,75.8,68.0,54.8,65.6,59.1,51.6,95,75,49,30.01,29.84,16,2,16,0.00
2014-5-23,69.0,59.6,50.5,53.4,49.3,45.8,97,72,46,30.14,29.98,16,2,16,0.00
2014-5-24,77.3,61.0,45.8,54.9,50.0,44.5,97,72,39,30.22,30.11,13,1,13,0.00
2014-5-25,81.0,65.0,46.8,56.2,50.8,45.3,96,66,34,30.20,30.09,9,1,9,0.00
2014-5-26,84.6,68.8,49.5,63.7,55.8,48.1,96,67,37,30.15,29.97,15,2,16,0.00
2014-5-27,86.5,76.0,68.0,71.1,65.6,62.4,88,71,48,29.99,29.85,14,3,20,0.00
2014-5-28,84.5,69.6,63.5,70.2,65.4,62.0,96,87,59,30.01,29.89,19,1,19,0.31
2014-5-29,79.5,69.5,59.5,66.0,62.2,53.5,97,79,57,30.08,29.98,11,1,11,0.00
2014-5-30,79.3,64.6,49.5,61.9,54.6,48.2,97,74,40,30.17,30.08,14,2,14,0.00
2014-5-31,81.7,67.4,51.9,59.4,54.5,50.1,96,68,38,30.22,30.11,15,2,15,0.00
2014-6-1,84.5,70.0,51.9,67.4,60.0,50.1,94,72,51,30.19,30.05,14,2,14,0.00
2014-6-2,80.8,73.6,65.4,69.8,65.4,60.3,91,76,64,30.11,29.95,17,3,17,0.18
2014-6-3,83.8,75.2,65.2,71.3,67.3,62.2,93,77,52,29.96,29.82,30,3,30,0.29
2014-6-4,74.4,64.6,56.5,66.3,60.8,55.4,97,88,64,29.92,29.67,17,2,17,0.60
2014-6-5,72.7,63.6,51.7,57.5,53.3,48.6,97,72,46,29.95,29.72,14,2,14,0.01
2014-6-6,77.6,62.3,47.0,55.9,50.6,45.8,97,70,35,30.04,29.94,11,1,11,0.00
2014-6-7,81.9,66.3,49.4,58.1,51.7,34.6,94,65,24,30.08,29.89,11,1,11,0.00
2014-6-8,75.8,63.8,55.3,68.9,60.1,53.3,95,88,76,29.94,29.74,16,2,16,0.68
2014-6-9,74.9,65.5,54.6,63.9,59.1,53.4,97,81,59,29.97,29.87,11,1,11,0.00
2014-6-10,73.3,66.5,59.2,64.7,62.1,58.1,98,86,71,29.93,29.86,9,1,9,0.09
2014-6-11,81.8,71.1,63.8,70.3,66.0,62.3,96,84,64,29.90,29.74,16,3,16,0.02
2014-6-12,80.3,72.2,63.5,68.5,65.3,61.1,95,80,62,29.82,29.75,16,3,16,0.06
2014-6-13,76.3,67.7,59.7,67.8,59.6,51.8,96,77,50,29.97,29.77,14,2,16,0.07
2014-6-14,74.7,62.3,49.2,55.6,50.8,47.8,96,69,43,30.13,29.97,22,1,22,0.00
2014-6-15,84.1,67.0,48.6,61.0,54.0,46.9,95,68,32,30.16,30.02,8,2,9,0.00
2014-6-16,86.7,72.9,59.8,72.2,65.6,56.6,95,79,60,30.11,30.03,15,2,15,0.00
2014-6-17,89.0,78.5,64.5,71.9,68.3,63.1,96,73,49,30.08,29.91,23,3,23,0.00
2014-6-18,89.7,79.1,67.2,75.4,70.4,64.3,97,76,52,30.03,29.92,30,3,30,0.99
2014-6-19,83.0,74.3,67.1,71.4,68.4,65.5,97,83,63,30.06,29.93,12,2,12,0.92
2014-6-20,84.7,72.0,63.0,73.1,67.5,62.1,98,87,60,30.06,29.88,8,1,8,0.25
2014-6-21,74.8,70.4,64.9,68.9,67.2,63.4,97,90,78,29.92,29.83,8,1,8,0.00
2014-6-22,78.1,67.7,59.3,66.3,61.9,58.4,98,83,53,29.97,29.89,6,0,6,0.01
2014-6-23,88.0,71.8,61.2,74.3,66.6,60.0,96,85,60,29.97,29.89,24,2,24,0.12
2014-6-24,87.2,75.4,67.5,74.1,69.6,66.2,96,83,59,30.00,29.84,20,2,21,0.17
2014-6-25,82.3,73.4,67.5,72.9,69.4,65.7,97,88,66,29.94,29.84,10,1,10,1.40
2014-6-26,83.2,71.9,62.2,69.0,65.3,61.6,98,82,54,30.03,29.94,9,1,9,0.00
2014-6-27,86.7,73.4,61.7,69.9,64.8,60.8,98,77,47,30.09,30.02,8,1,8,0.00
2014-6-28,89.3,74.8,62.8,72.7,67.8,61.6,98,81,49,30.14,30.07,9,1,14,0.00
2014-6-29,86.5,76.6,70.9,74.1,71.4,68.3,96,85,63,30.11,29.98,18,2,18,0.33
2014-6-30,85.7,76.4,68.8,74.5,71.2,67.9,98,85,65,30.01,29.83,17,2,17,0.00
2014-7-1,89.3,80.8,73.1,77.2,73.7,69.2,93,80,62,29.85,29.71,24,4,24,0.04
2014-7-2,85.2,76.0,67.9,71.1,67.8,65.5,95,77,52,29.92,29.74,18,3,24,0.11
2014-7-3,77.2,70.4,62.1,68.6,63.4,57.1,96,80,54,30.10,29.90,20,2,20,0.07
2014-7-4,76.3,65.1,54.0,60.6,53.7,46.3,97,71,40,30.29,30.09,15,2,15,0.00
2014-7-5,79.4,63.9,48.1,63.1,53.4,46.9,97,73,41,30.33,30.15,9,1,9,0.00
2014-7-6,78.0,67.4,54.2,66.5,60.0,52.8,96,78,53,30.15,29.89,8,1,12,0.00
2014-7-7,84.3,75.7,70.2,71.9,66.9,62.9,93,75,59,29.89,29.74,20,4,20,0.01
2014-7-8,83.2,74.5,67.5,72.4,67.6,62.4,94,80,53,29.80,29.64,23,4,23,0.02
2014-7-9,83.5,73.2,63.9,66.3,62.5,57.8,93,71,44,29.98,29.80,17,2,17,0.00
2014-7-10,84.2,71.5,58.5,66.5,61.5,56.6,97,74,41,30.12,29.98,10,1,10,0.00
2014-7-11,85.3,72.3,60.4,65.8,62.0,58.9,97,73,44,30.19,30.12,10,1,10,0.00
2014-7-12,87.3,74.2,60.6,69.3,64.3,59.1,97,74,49,30.17,30.00,14,2,14,0.00
2014-7-13,85.4,77.5,71.6,76.2,70.3,65.8,90,79,69,30.00,29.84,17,3,17,0.28
2014-7-14,82.5,75.0,71.5,72.9,70.4,68.8,95,86,67,29.90,29.74,20,2,20,0.28
2014-7-15,77.3,71.6,60.5,70.6,60.5,52.6,93,70,44,29.88,29.73,18,4,18,0.00
2014-7-16,72.2,63.0,53.8,56.8,54.7,51.9,95,76,53,30.00,29.87,12,2,13,0.00
2014-7-17,78.3,63.6,51.9,61.1,54.7,50.8,97,76,42,30.15,30.00,9,1,9,0.00
2014-7-18,76.8,65.7,53.4,65.0,58.5,52.0,96,79,50,30.21,30.14,13,1,13,0.03
2014-7-19,69.6,66.3,63.8,66.0,64.1,62.6,96,93,85,30.14,30.04,12,2,12,0.70
2014-7-20,80.0,70.4,64.7,70.5,66.2,63.5,97,87,67,30.08,30.01,6,1,6,0.03
2014-7-21,87.8,74.5,64.1,73.5,68.5,63.5,98,83,55,30.12,30.04,7,1,7,0.00
2014-7-22,89.7,77.6,65.4,75.0,70.4,64.8,98,81,54,30.12,29.97,11,1,11,0.00
2014-7-23,84.7,74.0,65.7,73.7,68.7,59.8,97,84,63,29.99,29.88,15,2,15,0.18
2014-7-24,77.5,67.2,57.4,60.1,57.7,53.5,96,73,51,30.06,29.96,16,3,16,0.00
2014-7-25,78.3,65.0,50.4,63.8,56.3,49.3,97,76,48,30.11,29.97,11,1,11,0.00
2014-7-26,85.3,73.5,63.0,68.8,64.9,61.0,94,76,54,29.99,29.81,13,2,16,0.00
2014-7-27,81.7,72.4,66.0,72.7,68.8,63.8,97,89,69,29.83,29.59,15,2,15,0.68
2014-7-28,72.9,66.0,58.4,65.1,59.9,54.9,95,82,58,29.94,29.63,16,2,16,0.05
2014-7-29,70.3,61.6,53.3,56.8,53.7,51.1,96,77,52,30.03,29.93,12,1,12,0.00
2014-7-30,75.8,63.7,54.3,63.8,58.3,52.6,96,84,55,30.04,29.98,12,1,12,0.05
2014-7-31,80.5,68.9,58.9,66.7,61.9,57.7,97,80,52,30.08,30.01,15,2,15,0.01
2014-8-1,85.4,71.6,57.9,70.2,63.0,57.0,97,77,45,30.12,30.02,10,1,10,0.00
2014-8-2,75.0,66.8,63.5,65.7,63.5,61.8,96,90,70,30.11,30.03,12,1,12,0.22
2014-8-3,78.9,68.6,62.1,69.0,64.3,61.4,98,87,64,30.12,30.05,9,1,9,0.04
2014-8-4,85.7,70.9,58.7,68.8,63.1,58.1,98,80,45,30.12,30.03,12,1,12,0.01
2014-8-5,83.8,70.3,58.5,69.9,63.9,57.6,97,82,53,30.06,29.98,14,1,14,0.13
2014-8-6,82.7,71.4,60.6,68.2,64.5,57.6,97,80,57,30.02,29.92,13,1,13,0.00
2014-8-7,80.8,66.4,53.5,64.8,57.5,52.4,98,76,42,30.09,30.02,11,1,11,0.00
2014-8-8,80.2,67.3,55.5,63.2,57.7,54.4,98,75,44,30.12,30.02,16,3,16,0.00
2014-8-9,84.1,69.6,56.0,68.5,62.2,54.5,96,79,55,30.08,30.00,12,2,13,0.00
2014-8-10,85.9,72.8,60.3,71.5,65.3,59.3,97,79,53,30.06,29.95,15,2,15,0.00
2014-8-11,78.1,71.5,67.7,73.5,68.2,65.2,95,89,82,30.00,29.76,19,3,19,1.06
2014-8-12,80.8,72.2,66.3,71.8,67.6,61.9,97,86,55,29.82,29.69,19,3,19,1.62
2014-8-13,76.3,66.4,60.6,63.2,58.5,52.6,96,78,45,29.96,29.82,16,2,16,0.02
2014-8-14,74.2,64.6,51.8,59.9,55.2,49.8,97,74,45,30.00,29.91,17,2,17,0.00
2014-8-15,74.8,60.2,47.2,56.3,50.9,46.4,98,75,43,30.06,29.98,13,1,13,0.00
2014-8-16,79.0,63.0,45.6,64.2,54.4,44.8,98,77,41,30.03,29.94,15,2,17,0.01
2014-8-17,82.3,72.5,64.5,73.4,67.5,62.8,96,85,62,29.97,29.90,7,1,7,0.07
2014-8-18,83.3,73.2,65.0,72.0,67.8,64.1,98,84,64,29.92,29.76,13,2,13,0.00
2014-8-19,86.7,74.5,60.6,74.0,67.0,59.7,97,79,58,29.84,29.76,9,1,9,0.00
2014-8-20,84.7,73.5,65.7,73.3,68.0,64.2,95,84,63,29.97,29.80,15,3,16,0.31
2014-8-21,77.3,70.6,63.2,71.5,67.7,62.3,98,91,80,30.05,29.95,13,2,13,0.00
2014-8-22,85.5,74.7,69.0,75.4,71.3,67.3,98,90,68,30.00,29.89,8,1,9,0.32
2014-8-23,85.8,75.1,67.8,71.7,69.5,66.2,98,84,60,29.99,29.92,11,1,11,0.01
2014-8-24,83.0,73.3,65.1,71.6,67.9,63.9,97,84,65,30.06,29.98,12,2,12,0.00
2014-8-25,86.1,73.0,62.7,71.1,66.2,61.3,96,81,56,30.11,30.04,11,2,11,0.00
2014-8-26,86.7,74.1,63.0,73.3,66.8,61.8,97,80,56,30.14,30.02,9,1,9,0.00
2014-8-27,87.8,74.7,67.6,75.1,69.6,64.2,97,85,60,30.06,29.95,12,1,12,0.01
2014-8-28,77.0,66.5,57.8,64.2,59.0,56.3,97,79,53,30.13,30.02,13,2,13,0.00
2014-8-29,83.2,66.3,51.2,66.2,57.5,50.3,98,77,40,30.15,30.04,10,1,10,0.01
2014-8-30,90.0,76.2,60.7,74.3,67.0,58.9,95,75,50,30.08,29.94,14,2,14,0.00
2014-8-31,78.1,73.4,70.2,72.7,70.6,68.8,96,91,76,30.02,29.95,16,2,16,0.76
2014-9-1,84.1,75.6,71.1,74.1,71.2,69.3,96,86,68,29.99,29.86,17,2,17,0.01
2014-9-2,81.7,75.0,64.9,73.0,70.1,64.0,97,85,65,29.95,29.85,17,3,20,0.20
2014-9-3,85.0,71.4,62.4,71.1,65.5,61.8,98,84,51,30.07,29.94,7,1,7,0.01
2014-9-4,87.0,73.1,60.8,72.2,66.0,60.1,98,81,50,30.11,30.02,9,1,11,0.00
2014-9-5,89.0,77.3,68.4,75.8,71.2,67.0,97,83,60,30.12,29.93,12,2,12,0.01
2014-9-6,79.5,71.0,58.9,72.1,66.4,57.6,97,86,70,30.10,29.92,16,2,18,0.00
2014-9-7,76.0,63.3,52.2,59.5,55.6,51.4,98,79,50,30.21,30.10,12,2,14,0.01
2014-9-8,79.8,65.6,52.3,67.2,58.7,51.4,98,80,51,30.17,30.05,10,1,10,0.00
2014-9-9,80.3,69.5,62.6,69.4,63.9,59.3,96,83,65,30.10,29.98,12,2,12,0.00
2014-9-10,82.6,73.8,62.8,72.8,68.2,61.9,97,83,70,29.99,29.74,20,4,22,0.00
2014-9-11,77.8,66.7,58.8,70.2,62.0,54.6,95,85,71,30.12,29.72,17,3,19,0.33
2014-9-12,62.4,58.7,55.7,55.3,53.4,51.9,93,83,69,30.23,30.12,14,2,14,0.00
2014-9-13,57.4,56.1,55.2,55.2,54.5,53.8,96,94,91,30.13,30.06,5,1,5,0.00
2014-9-14,67.5,56.3,42.3,52.4,48.1,41.5,98,77,51,30.36,30.21,6,1,9,0.00
2014-9-15,71.7,56.4,42.9,58.1,49.9,42.1,98,81,51,30.25,30.02,13,1,15,0.01
2014-9-16,70.3,59.7,51.0,56.0,53.9,49.9,96,82,54,30.14,30.05,9,1,9,0.00
2014-9-17,72.0,57.4,47.8,55.4,50.5,47.0,98,81,50,30.08,29.95,7,1,8,0.01
2014-9-18,71.3,58.1,48.4,55.4,50.2,46.9,98,79,46,30.17,29.99,12,1,13,0.00
2014-9-19,75.3,59.1,45.3,60.1,52.3,44.5,98,81,48,30.22,30.09,13,1,13,0.01
2014-9-20,80.2,70.4,58.1,66.8,62.5,55.7,95,77,63,30.10,29.88,15,4,16,0.00
2014-9-21,80.5,71.0,58.4,68.6,59.7,43.1,87,70,29,29.91,29.65,24,6,31,0.00
2014-9-22,60.7,54.1,43.1,53.6,47.0,41.7,96,78,56,30.29,29.91,13,2,13,0.00
2014-9-23,71.8,54.3,39.1,52.3,45.4,38.3,98,76,40,30.39,30.28,8,1,9,0.01
2014-9-24,76.7,58.7,44.1,54.4,48.6,42.8,98,74,38,30.42,30.32,14,2,14,0.00
2014-9-25,77.8,59.5,44.0,58.6,51.7,42.9,98,79,45,30.36,30.21,11,1,11,0.00
2014-9-26,80.0,61.8,48.6,62.4,55.1,47.8,98,82,49,30.29,30.19,12,1,12,0.00
2014-9-27,78.7,61.4,48.6,60.0,54.0,47.8,98,80,45,30.27,30.15,14,2,14,0.01
2014-9-28,80.9,62.2,47.7,63.5,55.2,46.9,98,81,45,30.18,30.04,10,0,12,0.00
2014-9-29,81.3,65.0,53.5,66.1,58.1,52.3,98,81,42,30.04,29.88,8,1,8,0.00
2014-9-30,69.5,58.3,51.3,62.9,56.0,50.4,98,93,77,29.97,29.86,6,1,6,0.13
2014-10-1,71.7,58.8,50.7,58.5,54.7,49.6,97,88,60,30.04,29.96,6,1,6,0.01
2014-10-2,82.5,62.9,48.5,64.8,56.3,47.9,98,82,48,30.10,29.91,9,1,9,0.01
2014-10-3,72.3,65.2,55.3,65.6,59.8,52.9,94,83,73,29.92,29.59,17,5,21,0.35
2014-10-4,55.2,46.8,40.7,53.2,39.7,30.5,95,77,52,29.84,29.66,24,5,25,0.09
2014-10-5,55.7,48.0,40.6,40.8,37.4,33.9,86,68,45,29.91,29.82,18,3,18,0.00
2014-10-6,60.9,53.5,45.3,54.6,49.1,39.9,93,85,70,29.86,29.72,16,3,18,0.24
2014-10-7,63.2,55.4,49.2,57.0,52.4,47.8,97,90,73,29.90,29.73,21,3,21,0.59
2014-10-8,66.0,56.2,44.1,52.8,47.2,41.8,97,75,43,30.07,29.82,24,4,24,0.01
2014-10-9,57.4,48.5,37.5,49.9,44.3,36.3,96,86,66,30.13,30.04,14,1,14,0.00
2014-10-10,62.1,53.4,45.7,52.6,48.5,44.6,97,85,60,30.11,30.06,9,1,9,0.00
2014-10-11,59.3,51.4,41.6,45.5,42.1,39.7,94,72,51,30.23,30.04,17,3,17,0.00
2014-10-12,63.4,49.7,33.2,55.2,44.8,32.1,97,85,55,30.22,30.08,12,2,12,0.00
2014-10-13,77.5,64.9,54.3,65.3,59.8,52.4,95,84,63,30.08,29.92,17,2,17,0.05
2014-10-14,78.6,70.0,58.0,64.8,60.9,56.3,95,74,51,29.93,29.62,28,5,29,0.49
2014-10-15,67.4,59.4,53.2,58.5,55.8,52.3,97,89,63,29.82,29.72,13,2,13,0.12
2014-10-16,61.7,56.2,51.7,55.0,53.3,51.1,98,90,75,29.77,29.71,9,1,9,0.02
2014-10-17,70.6,61.3,54.0,56.0,52.2,48.6,92,73,53,29.77,29.58,23,5,23,0.00
2014-10-18,59.7,51.0,46.4,50.1,44.0,39.6,90,77,60,30.06,29.68,20,4,20,0.01
2014-10-19,56.2,47.0,39.0,43.0,37.9,33.8,93,73,47,30.21,30.06,12,1,12,0.00
2014-10-20,59.9,49.5,39.0,49.9,43.6,36.3,93,81,59,30.07,29.86,17,2,17,0.09
2014-10-21,53.1,50.1,46.3,50.3,47.4,43.4,95,90,83,30.10,29.86,13,2,14,0.05
2014-10-22,51.7,48.7,41.7,45.9,44.5,39.6,94,86,74,30.24,30.09,15,2,15,0.01
2014-10-23,60.4,48.6,39.8,47.6,43.7,38.4,97,85,61,30.23,30.11,10,1,13,0.00
2014-10-24,64.8,47.8,36.1,48.3,41.5,35.3,98,81,48,30.15,30.01,9,1,9,0.00
2014-10-25,70.2,54.2,38.6,58.1,47.3,37.2,96,79,42,30.03,29.77,22,3,22,0.00
2014-10-26,64.5,50.7,37.7,39.2,35.4,29.1,87,60,27,29.98,29.83,18,2,18,0.00
2014-10-27,77.4,55.6,32.6,60.5,44.4,30.4,93,70,37,30.05,29.85,18,2,18,0.00
2014-10-28,75.3,67.1,52.5,62.4,57.9,48.0,93,73,60,29.97,29.80,24,5,24,0.20
2014-10-29,58.9,51.6,44.8,49.1,42.4,36.0,91,72,50,30.08,29.96,18,3,18,0.00
2014-10-30,51.9,43.1,32.0,43.3,37.6,30.6,97,82,64,30.16,30.06,7,0,7,0.00
2014-10-31,47.7,44.4,42.3,42.4,40.5,37.6,96,86,76,30.06,29.86,9,1,9,0.27
2014-11-1,43.6,41.3,38.1,41.7,36.3,27.0,96,83,64,30.27,29.91,21,3,21,0.04
2014-11-2,48.6,38.6,27.8,31.3,28.0,22.8,92,67,47,30.42,30.26,16,2,16,0.00
2014-11-3,61.6,44.1,24.4,32.7,26.6,22.6,94,58,26,30.40,30.20,18,2,18,0.00
2014-11-4,68.7,56.1,39.3,52.6,37.7,27.4,93,52,31,30.21,30.00,31,5,31,0.02
2014-11-5,56.3,51.0,44.2,52.5,44.1,36.9,94,78,49,30.22,30.06,11,2,13,0.02
2014-11-6,53.8,47.6,44.3,50.2,45.4,42.3,97,92,84,30.05,29.73,21,4,26,0.55
2014-11-7,45.4,38.6,28.6,43.5,32.2,26.5,95,79,53,30.13,29.87,19,3,19,0.01
2014-11-8,51.6,40.9,27.5,40.0,33.1,25.7,94,75,52,30.07,29.81,18,3,18,0.00
2014-11-9,52.7,46.1,40.3,38.1,35.2,32.6,88,67,48,30.04,29.93,16,2,16,0.00
2014-11-10,65.8,50.2,36.0,40.0,36.5,32.8,90,62,35,30.06,29.86,15,2,15,0.00
2014-11-11,71.5,59.5,42.4,56.4,43.8,35.9,93,58,41,29.90,29.76,20,5,20,0.05
2014-11-12,48.7,39.2,35.9,45.8,31.1,25.6,90,73,61,30.24,29.89,20,4,20,0.00
2014-11-13,35.9,31.8,26.8,27.8,25.3,22.8,85,77,69,30.25,30.17,11,3,16,0.00
2014-11-14,33.7,27.9,22.0,23.1,20.4,17.7,84,73,55,30.40,30.24,12,3,12,0.00
2014-11-15,37.9,29.2,19.2,22.4,19.3,15.9,90,68,44,30.47,30.28,13,1,13,0.00
2014-11-16,38.0,33.7,28.4,33.3,28.5,21.5,95,81,68,30.29,29.92,10,1,10,0.06
2014-11-17,33.6,29.0,17.9,32.5,25.7,11.7,96,88,68,30.02,29.69,25,4,25,0.17
2014-11-18,20.1,16.8,13.9,14.6,9.7,6.8,88,73,62,30.32,30.01,30,8,30,0.00
2014-11-19,39.5,26.7,12.6,29.2,18.0,9.4,88,70,55,30.32,29.92,28,6,28,0.07
2014-11-20,32.7,26.6,23.2,23.2,16.8,12.9,74,66,59,30.25,30.01,23,8,25,0.00
2014-11-21,29.5,21.1,13.4,16.1,13.4,10.2,89,73,51,30.57,30.25,10,1,10,0.00
2014-11-22,48.3,32.5,12.5,35.7,25.6,9.3,89,76,58,30.49,30.11,11,1,11,0.01
2014-11-23,65.7,53.5,39.1,53.1,41.7,31.7,93,66,47,30.14,29.39,15,3,15,0.28
2014-11-24,66.4,56.5,41.6,56.1,47.3,31.0,92,72,51,29.88,29.32,42,10,42,0.03
2014-11-25,43.2,37.2,27.5,32.7,29.6,24.9,90,74,62,30.22,29.88,22,4,24,0.00
2014-11-26,40.6,34.2,27.6,31.8,28.9,25.0,93,81,70,30.23,30.04,10,1,10,0.00
2014-11-27,34.5,31.8,29.0,30.4,27.4,24.4,94,84,73,30.33,30.05,13,3,13,0.00
2014-11-28,30.6,28.0,23.6,26.4,20.9,17.2,94,75,62,30.43,30.20,13,2,13,0.00
2014-11-29,53.1,41.1,29.7,41.9,29.3,21.7,74,63,50,30.21,29.92,17,2,17,0.00
2014-11-30,64.2,59.4,53.1,55.1,50.2,42.0,75,71,66,30.02,29.91,24,5,26,0.00
2014-12-1,63.4,42.0,30.1,56.1,36.8,22.2,94,82,69,30.56,30.02,17,3,17,0.16
2014-12-2,36.8,31.5,26.7,35.5,27.8,20.4,96,86,73,30.56,30.17,14,3,14,0.02
2014-12-3,39.9,36.5,27.8,36.2,32.0,25.7,95,84,64,30.39,30.13,24,4,24,0.00
2014-12-4,35.6,30.1,22.8,31.0,27.2,21.0,94,89,79,30.48,30.38,5,0,5,0.00
2014-12-5,42.2,38.2,33.8,41.4,34.8,27.7,97,88,76,30.39,30.15,9,1,9,0.39
2014-12-6,43.6,40.7,35.8,42.7,37.5,27.3,97,88,70,30.53,30.07,21,4,21,1.15
2014-12-7,40.9,32.1,26.0,27.5,26.0,23.5,91,78,55,30.66,30.49,6,1,14,0.00
2014-12-8,44.9,38.9,28.6,31.8,22.9,18.6,86,54,38,30.49,30.16,16,3,16,0.00
2014-12-9,43.7,39.2,35.8,37.6,34.8,31.8,92,84,73,30.16,30.08,12,1,12,0.01
2014-12-10,37.4,32.8,28.2,34.7,28.1,21.3,92,83,74,30.20,30.11,18,4,18,0.00
2014-12-11,36.5,29.8,24.0,26.1,20.9,15.5,85,70,46,30.18,30.08,18,6,19,0.00
2014-12-12,34.3,27.7,23.6,27.6,24.1,21.6,93,86,76,30.31,30.17,9,2,12,0.00
2014-12-13,40.7,33.5,24.3,37.6,31.4,22.5,94,92,88,30.29,30.14,9,2,12,0.00
2014-12-14,47.1,44.5,40.7,42.5,40.5,37.4,89,86,83,30.16,30.10,10,3,11,0.00
2014-12-15,54.8,44.8,36.5,45.6,41.1,35.0,96,87,69,30.13,29.88,7,1,11,0.00
2014-12-16,50.8,45.3,37.9,48.2,42.7,36.7,96,91,85,29.99,29.75,23,5,23,0.30
2014-12-17,41.1,34.1,28.6,38.1,29.1,21.6,90,82,75,30.25,29.99,25,7,25,0.00
2014-12-18,29.0,28.6,28.2,25.3,23.4,21.4,88,80,75,30.30,30.23,16,3,17,0.00
2014-12-19,31.2,30.0,28.5,27.4,25.9,24.2,88,85,77,30.35,30.23,8,2,8,0.00
2014-12-20,32.1,30.7,29.4,25.1,23.9,22.9,81,76,69,30.34,30.28,5,0,5,0.00
2014-12-21,34.3,29.6,22.5,26.5,24.7,20.0,92,82,70,30.38,30.22,7,0,7,0.00
2014-12-22,47.1,33.8,20.7,37.8,29.1,18.7,93,84,68,30.22,29.90,8,1,8,0.00
2014-12-23,59.2,49.2,38.5,54.2,46.3,34.9,96,90,80,29.91,29.77,17,2,17,0.38
2014-12-24,61.0,53.6,42.5,55.7,50.7,36.2,97,90,78,29.77,29.29,32,5,32,0.13
2014-12-25,42.4,39.8,38.1,36.8,33.7,31.2,87,79,70,30.25,29.66,19,6,25,0.00
2014-12-26,49.9,39.9,29.0,38.6,33.5,27.1,94,79,62,30.31,30.20,16,2,16,0.00
2014-12-27,55.6,45.6,32.3,45.5,36.3,30.2,95,73,46,30.26,30.02,18,2,18,0.19
2014-12-28,47.6,40.0,34.7,46.2,36.2,30.4,96,87,75,30.21,29.97,10,1,15,0.26
2014-12-29,36.0,29.9,21.8,30.7,24.8,17.5,96,82,68,30.41,30.20,6,1,11,0.00
2014-12-30,32.2,25.6,21.1,22.7,18.1,12.1,92,74,56,30.55,30.41,13,2,13,0.00
2014-12-31,26.6,22.1,15.7,17.4,10.5,6.7,78,62,43,30.55,30.28,21,6,21,0.00
2015-1-1,37.4,28.4,20.0,22.4,14.8,8.5,65,56,46,30.28,30.07,17,6,26,0.00
2015-1-2,38.0,31.1,25.2,24.1,22.5,21.3,87,71,56,30.42,30.21,16,3,16,0.00